Time;durP1;ratioP1;P1;durP2;ratioP2;P2;SDS_P1;SDS_P2;PMS_P1;PMS_P2;Temp;Humidity;BMP_temperature;BMP_pressure;BME280_temperature;BME280_humidity;BME280_pressure;Samples;Min_cycle;Max_cycle;Signal;HPM_P1;HPM_P2
2022/11/02 00:01:15;;;;;;;0.90;0.90;;;;;;;;;;5097983;28;20196;-67
2022/11/02 00:03:43;;;;;;;1.02;0.77;;;;;;;;;;5098485;28;20217;-66
2022/11/02 00:06:10;;;;;;;0.95;0.90;;;;;;;;;;5097761;28;20551;-66
2022/11/02 00:08:38;;;;;;;1.00;1.00;;;;;;;;;;5098525;28;20200;-66
2022/11/02 00:11:06;;;;;;;1.00;0.90;;;;;;;;;;5099217;28;20302;-67
2022/11/02 00:13:33;;;;;;;1.13;0.95;;;;;;;;;;5098224;28;20242;-66
2022/11/02 00:16:02;;;;;;;0.90;0.90;;;;;;;;;;5099054;28;20207;-66
2022/11/02 00:18:31;;;;;;;1.15;1.05;;;;;;;;;;5096521;28;20546;-66
2022/11/02 00:20:59;;;;;;;0.90;0.80;;;;;;;;;;5098802;28;20279;-67
2022/11/02 00:23:29;;;;;;;0.80;0.80;;;;;;;;;;5098230;28;20287;-66
2022/11/02 00:25:57;;;;;;;0.88;0.88;;;;;;;;;;5098629;28;20654;-67
2022/11/02 00:28:26;;;;;;;1.00;0.90;;;;;;;;;;5097536;28;20246;-66
2022/11/02 00:30:54;;;;;;;1.00;0.90;;;;;;;;;;5098923;28;20204;-66
2022/11/02 00:33:22;;;;;;;0.70;0.70;;;;;;;;;;5096581;28;20226;-66
2022/11/02 00:35:51;;;;;;;0.95;0.80;;;;;;;;;;5097835;28;20278;-66
2022/11/02 00:38:19;;;;;;;1.20;0.90;;;;;;;;;;5096473;28;20261;-67
2022/11/02 00:40:46;;;;;;;0.68;0.68;;;;;;;;;;5098182;28;20544;-66
2022/11/02 00:43:14;;;;;;;0.90;0.90;;;;;;;;;;5097738;28;20191;-68
2022/11/02 00:45:42;;;;;;;1.00;1.00;;;;;;;;;;5098046;28;20204;-66
2022/11/02 00:48:09;;;;;;;0.80;0.80;;;;;;;;;;5096315;28;20202;-66
2022/11/02 00:50:37;;;;;;;0.80;0.80;;;;;;;;;;5098035;28;20243;-66
2022/11/02 00:53:06;;;;;;;0.80;0.70;;;;;;;;;;5097729;28;20269;-67
2022/11/02 00:55:34;;;;;;;0.80;0.80;;;;;;;;;;5097206;28;20196;-67
2022/11/02 00:58:01;;;;;;;1.20;0.77;;;;;;;;;;5096945;28;20200;-66
2022/11/02 01:00:29;;;;;;;0.80;0.80;;;;;;;;;;5098290;28;20265;-66
2022/11/02 01:03:00;;;;;;;0.90;0.90;;;;;;;;;;5097673;28;20195;-66
2022/11/02 01:05:28;;;;;;;0.95;0.80;;;;;;;;;;5097608;28;20210;-66
2022/11/02 01:07:56;;;;;;;0.70;0.70;;;;;;;;;;5096556;28;20223;-66
2022/11/02 01:10:26;;;;;;;0.75;0.75;;;;;;;;;;5097818;28;20207;-66
2022/11/02 01:12:53;;;;;;;0.70;0.70;;;;;;;;;;5096907;28;20206;-66
2022/11/02 01:15:21;;;;;;;0.70;0.70;;;;;;;;;;5096827;28;20518;-66
2022/11/02 01:17:49;;;;;;;1.05;0.80;;;;;;;;;;5096218;28;20211;-66
2022/11/02 01:20:16;;;;;;;0.60;0.60;;;;;;;;;;5077120;28;20272;-66
2022/11/02 01:22:44;;;;;;;0.70;0.60;;;;;;;;;;5078488;28;20212;-66
2022/11/02 01:25:12;;;;;;;0.70;0.70;;;;;;;;;;5097408;28;20206;-67
2022/11/02 01:27:41;;;;;;;0.77;0.70;;;;;;;;;;5096795;28;20249;-66
2022/11/02 01:30:09;;;;;;;0.63;0.52;;;;;;;;;;5096660;28;20294;-66
2022/11/02 01:32:37;;;;;;;0.70;0.70;;;;;;;;;;5095970;28;20199;-66
2022/11/02 01:35:04;;;;;;;0.80;0.80;;;;;;;;;;5097246;28;20227;-66
2022/11/02 01:37:32;;;;;;;0.80;0.70;;;;;;;;;;5096842;28;20206;-67
2022/11/02 01:40:00;;;;;;;0.60;0.60;;;;;;;;;;5095808;28;20231;-66
2022/11/02 01:42:28;;;;;;;0.70;0.70;;;;;;;;;;5096809;28;20207;-66
2022/11/02 01:44:57;;;;;;;0.60;0.60;;;;;;;;;;5096442;28;20553;-67
2022/11/02 01:47:27;;;;;;;0.60;0.60;;;;;;;;;;5096366;28;20195;-66
2022/11/02 01:49:57;;;;;;;0.52;0.52;;;;;;;;;;5095674;28;20230;-66
2022/11/02 01:52:27;;;;;;;0.88;0.68;;;;;;;;;;5096617;28;20210;-66
2022/11/02 01:54:56;;;;;;;0.77;0.77;;;;;;;;;;5097225;28;20353;-66
2022/11/02 01:57:23;;;;;;;0.70;0.70;;;;;;;;;;5097415;28;20215;-66
2022/11/02 01:59:54;;;;;;;0.80;0.80;;;;;;;;;;5095292;28;20207;-66
2022/11/02 02:02:25;;;;;;;0.75;0.60;;;;;;;;;;5095396;28;20199;-67
2022/11/02 02:04:54;;;;;;;0.73;0.70;;;;;;;;;;5095792;28;20198;-66
2022/11/02 02:07:24;;;;;;;0.75;0.75;;;;;;;;;;5097251;28;20264;-68
2022/11/02 02:09:52;;;;;;;0.60;0.60;;;;;;;;;;5095307;28;20205;-68
2022/11/02 02:12:21;;;;;;;0.50;0.50;;;;;;;;;;5095891;28;20295;-66
2022/11/02 02:14:48;;;;;;;0.70;0.70;;;;;;;;;;5096798;28;20318;-66
2022/11/02 02:17:22;;;;;;;0.63;0.63;;;;;;;;;;5097018;28;20203;-67
2022/11/02 02:19:55;;;;;;;0.60;0.60;;;;;;;;;;5094569;28;20231;-66
2022/11/02 02:22:48;;;;;;;0.70;0.70;;;;;;;;;;5097297;28;20280;-66
2022/11/02 02:25:24;;;;;;;0.60;0.60;;;;;;;;;;5096770;28;20207;-66
2022/11/02 02:28:05;;;;;;;0.68;0.60;;;;;;;;;;5096720;28;20197;-66
2022/11/02 02:30:36;;;;;;;0.60;0.60;;;;;;;;;;5076732;28;20204;-66
2022/11/02 02:33:06;;;;;;;0.60;0.60;;;;;;;;;;5081391;28;20206;-67
2022/11/02 02:35:38;;;;;;;0.80;0.63;;;;;;;;;;5096506;28;20224;-66
2022/11/02 02:38:07;;;;;;;0.60;0.60;;;;;;;;;;5080748;28;20642;-67
2022/11/02 02:40:36;;;;;;;0.50;0.50;;;;;;;;;;5096214;28;20226;-67
2022/11/02 02:43:09;;;;;;;0.60;0.57;;;;;;;;;;5095937;28;20200;-67
2022/11/02 02:45:38;;;;;;;0.70;0.70;;;;;;;;;;5094745;28;20202;-66
2022/11/02 02:48:08;;;;;;;0.55;0.55;;;;;;;;;;5095025;28;20196;-67
2022/11/02 02:50:38;;;;;;;0.90;0.70;;;;;;;;;;5096898;28;20214;-68
2022/11/02 02:53:08;;;;;;;0.70;0.60;;;;;;;;;;5099222;28;20230;-68
2022/11/02 02:55:38;;;;;;;1.15;0.90;;;;;;;;;;5100007;28;20258;-67
2022/11/02 02:58:09;;;;;;;0.60;0.60;;;;;;;;;;5099622;28;20250;-67
2022/11/02 03:00:37;;;;;;;0.60;0.60;;;;;;;;;;5079854;28;20204;-67
2022/11/02 03:03:05;;;;;;;1.15;0.70;;;;;;;;;;5084410;28;20205;-67
2022/11/02 03:05:34;;;;;;;0.50;0.50;;;;;;;;;;5100197;28;20200;-66
2022/11/02 03:08:04;;;;;;;0.40;0.40;;;;;;;;;;5100098;28;20470;-67
2022/11/02 03:10:34;;;;;;;0.63;0.50;;;;;;;;;;5099578;28;20207;-68
2022/11/02 03:13:17;;;;;;;0.60;0.40;;;;;;;;;;5098745;28;20195;-66
2022/11/02 03:15:49;;;;;;;0.50;0.50;;;;;;;;;;5099748;28;20230;-68
2022/11/02 03:18:18;;;;;;;0.50;0.50;;;;;;;;;;5083052;28;20279;-66
2022/11/02 03:20:52;;;;;;;0.60;0.60;;;;;;;;;;5100065;28;20503;-66
2022/11/02 03:23:22;;;;;;;0.50;0.50;;;;;;;;;;5099775;28;20257;-67
2022/11/02 03:25:53;;;;;;;0.60;0.50;;;;;;;;;;5100262;28;20302;-67
2022/11/02 03:28:25;;;;;;;0.57;0.55;;;;;;;;;;5099637;28;20227;-67
2022/11/02 03:30:58;;;;;;;0.50;0.50;;;;;;;;;;5099662;28;20619;-66
2022/11/02 03:33:27;;;;;;;0.60;0.60;;;;;;;;;;5099891;28;20257;-66
2022/11/02 03:35:57;;;;;;;0.60;0.60;;;;;;;;;;5099911;28;20227;-66
2022/11/02 03:38:26;;;;;;;0.60;0.50;;;;;;;;;;5099447;28;20207;-66
2022/11/02 03:40:55;;;;;;;0.60;0.60;;;;;;;;;;5099499;28;20204;-66
2022/11/02 03:43:25;;;;;;;1.05;0.70;;;;;;;;;;5099283;28;20196;-66
2022/11/02 03:45:54;;;;;;;0.50;0.45;;;;;;;;;;5099502;28;20295;-67
2022/11/02 03:48:22;;;;;;;0.43;0.43;;;;;;;;;;5098919;28;20208;-66
2022/11/02 03:50:51;;;;;;;0.57;0.57;;;;;;;;;;5099810;28;20203;-67
2022/11/02 03:53:22;;;;;;;0.55;0.55;;;;;;;;;;5099214;28;20196;-67
2022/11/02 03:55:53;;;;;;;0.60;0.60;;;;;;;;;;5099641;28;20543;-66
2022/11/02 03:58:21;;;;;;;0.50;0.50;;;;;;;;;;5099249;28;20199;-66
2022/11/02 04:00:52;;;;;;;0.80;0.60;;;;;;;;;;5098855;28;20206;-67
2022/11/02 04:03:20;;;;;;;0.60;0.57;;;;;;;;;;5098788;28;20229;-66
2022/11/02 04:05:48;;;;;;;0.70;0.57;;;;;;;;;;5099419;28;20239;-67
2022/11/02 04:08:23;;;;;;;0.60;0.57;;;;;;;;;;5098788;28;20293;-67
2022/11/02 04:16:23;;;;;;;0.77;0.60;;;;;;;;;;5098051;28;20619;-67
2022/11/02 04:21:36;;;;;;;0.70;0.70;;;;;;;;;;5089777;28;20599;-66
2022/11/02 04:26:49;;;;;;;0.85;0.60;;;;;;;;;;5078011;28;20590;-67
2022/11/02 04:29:17;;;;;;;0.40;0.40;;;;;;;;;;5091670;28;20211;-68
2022/11/02 04:31:46;;;;;;;0.60;0.60;;;;;;;;;;5096598;28;20279;-68
2022/11/02 04:34:13;;;;;;;0.73;0.47;;;;;;;;;;5082070;28;20301;-68
2022/11/02 04:36:40;;;;;;;0.40;0.40;;;;;;;;;;5079853;28;20277;-68
2022/11/02 04:39:07;;;;;;;0.40;0.40;;;;;;;;;;5077264;28;20211;-68
2022/11/02 04:41:44;;;;;;;0.82;0.57;;;;;;;;;;5094514;28;20241;-67
2022/11/02 04:44:13;;;;;;;0.60;0.57;;;;;;;;;;5098011;28;20634;-66
2022/11/02 04:46:41;;;;;;;0.40;0.40;;;;;;;;;;5098302;28;20222;-67
2022/11/02 04:49:11;;;;;;;0.50;0.50;;;;;;;;;;5097241;28;20580;-66
2022/11/02 04:51:40;;;;;;;0.80;0.50;;;;;;;;;;5083066;28;20200;-66
2022/11/02 04:54:07;;;;;;;0.50;0.50;;;;;;;;;;5083270;28;20747;-66
2022/11/02 04:56:35;;;;;;;0.40;0.40;;;;;;;;;;5097480;28;20216;-66
2022/11/02 04:59:03;;;;;;;0.60;0.60;;;;;;;;;;5084715;28;20204;-67
2022/11/02 05:01:31;;;;;;;1.05;0.40;;;;;;;;;;5076945;28;20204;-66
2022/11/02 05:03:58;;;;;;;0.63;0.60;;;;;;;;;;5077843;28;20200;-66
2022/11/02 05:06:27;;;;;;;0.65;0.65;;;;;;;;;;5093121;28;20196;-66
2022/11/02 05:08:56;;;;;;;0.40;0.40;;;;;;;;;;5085355;28;20836;-66
2022/11/02 05:11:23;;;;;;;0.60;0.60;;;;;;;;;;5095115;28;20210;-67
2022/11/02 05:13:50;;;;;;;0.60;0.52;;;;;;;;;;5088611;28;20214;-66
2022/11/02 05:16:18;;;;;;;0.40;0.40;;;;;;;;;;5076548;28;20212;-67
2022/11/02 05:18:45;;;;;;;0.50;0.50;;;;;;;;;;5076682;28;20200;-66
2022/11/02 05:21:13;;;;;;;0.77;0.40;;;;;;;;;;5076192;28;20204;-67
2022/11/02 05:23:42;;;;;;;0.77;0.38;;;;;;;;;;5076175;28;20200;-67
2022/11/02 05:26:11;;;;;;;0.50;0.50;;;;;;;;;;5076821;28;20230;-67
2022/11/02 05:28:38;;;;;;;0.50;0.50;;;;;;;;;;5075748;28;20200;-67
2022/11/02 05:31:06;;;;;;;0.50;0.50;;;;;;;;;;5075502;28;20214;-67
2022/11/02 05:33:33;;;;;;;0.50;0.50;;;;;;;;;;5076081;28;20196;-67
2022/11/02 05:36:01;;;;;;;0.40;0.40;;;;;;;;;;5075822;28;20314;-67
2022/11/02 05:38:29;;;;;;;0.60;0.60;;;;;;;;;;5076034;28;20608;-67
2022/11/02 05:40:58;;;;;;;0.70;0.50;;;;;;;;;;5076211;28;20472;-67
2022/11/02 05:43:26;;;;;;;0.50;0.50;;;;;;;;;;5075444;28;20207;-67
2022/11/02 05:45:54;;;;;;;0.82;0.55;;;;;;;;;;5075844;28;20224;-67
2022/11/02 05:48:22;;;;;;;1.38;0.80;;;;;;;;;;5075568;28;20204;-67
2022/11/02 05:50:49;;;;;;;1.30;0.80;;;;;;;;;;5075065;28;20201;-67
2022/11/02 05:53:17;;;;;;;2.38;1.27;;;;;;;;;;5074388;28;20189;-67
2022/11/02 05:55:44;;;;;;;2.00;1.17;;;;;;;;;;5074615;28;20219;-67
2022/11/02 05:58:13;;;;;;;3.38;1.38;;;;;;;;;;5074864;28;20196;-67
2022/11/02 06:00:40;;;;;;;6.10;1.60;;;;;;;;;;5077530;28;20207;-67
2022/11/02 06:03:08;;;;;;;4.18;1.88;;;;;;;;;;5074090;28;20206;-67
2022/11/02 06:05:35;;;;;;;4.78;1.80;;;;;;;;;;5074517;28;20205;-68
2022/11/02 06:08:03;;;;;;;4.43;1.83;;;;;;;;;;5074074;28;20212;-67
2022/11/02 06:10:31;;;;;;;4.22;2.13;;;;;;;;;;5073261;28;20211;-67
2022/11/02 06:12:58;;;;;;;5.25;2.42;;;;;;;;;;5073451;28;20192;-67
2022/11/02 06:15:27;;;;;;;4.95;2.28;;;;;;;;;;5072793;28;20224;-67
2022/11/02 06:17:55;;;;;;;5.93;2.28;;;;;;;;;;5072849;28;20201;-67
2022/11/02 06:20:22;;;;;;;5.68;2.50;;;;;;;;;;5073673;28;20228;-67
2022/11/02 06:22:50;;;;;;;6.30;2.30;;;;;;;;;;5073440;28;20581;-67
2022/11/02 06:25:18;;;;;;;5.90;2.53;;;;;;;;;;5073293;28;20196;-66
2022/11/02 06:27:51;;;;;;;5.45;2.45;;;;;;;;;;5077154;28;20489;-66
2022/11/02 06:30:19;;;;;;;4.65;2.35;;;;;;;;;;5078524;28;20204;-67
2022/11/02 06:32:51;;;;;;;4.35;2.60;;;;;;;;;;5077870;28;20597;-67
2022/11/02 06:35:19;;;;;;;5.93;2.53;;;;;;;;;;5078621;28;20647;-66
2022/11/02 06:37:47;;;;;;;5.30;2.67;;;;;;;;;;5078750;28;20196;-66
2022/11/02 06:40:14;;;;;;;5.75;2.35;;;;;;;;;;5077576;28;20203;-66
2022/11/02 06:42:42;;;;;;;6.53;3.13;;;;;;;;;;5078198;28;20212;-67
2022/11/02 06:45:10;;;;;;;4.53;2.22;;;;;;;;;;5077109;28;20196;-66
2022/11/02 06:47:38;;;;;;;6.30;2.88;;;;;;;;;;5077288;28;20204;-66
2022/11/02 06:50:07;;;;;;;6.47;2.95;;;;;;;;;;5077538;28;20211;-66
2022/11/02 06:52:35;;;;;;;6.70;2.65;;;;;;;;;;5078207;28;20494;-66
2022/11/02 06:55:02;;;;;;;4.90;2.80;;;;;;;;;;5077117;28;20216;-65
2022/11/02 06:57:29;;;;;;;4.85;2.60;;;;;;;;;;5076919;28;20200;-67
2022/11/02 07:00:02;;;;;;;5.28;2.40;;;;;;;;;;5076860;28;20200;-66
2022/11/02 07:02:30;;;;;;;5.25;2.65;;;;;;;;;;5076859;28;20281;-67
2022/11/02 07:04:57;;;;;;;5.47;2.78;;;;;;;;;;5078181;28;20191;-67
2022/11/02 07:07:26;;;;;;;5.80;2.70;;;;;;;;;;5076919;28;20207;-67
2022/11/02 07:09:53;;;;;;;6.55;2.60;;;;;;;;;;5077649;28;20197;-67
2022/11/02 07:12:22;;;;;;;6.00;2.50;;;;;;;;;;5077447;28;20206;-66
2022/11/02 07:14:49;;;;;;;4.70;2.40;;;;;;;;;;5077663;28;20204;-66
2022/11/02 07:17:18;;;;;;;4.05;2.38;;;;;;;;;;5072148;28;20280;-67
2022/11/02 07:19:45;;;;;;;4.75;2.28;;;;;;;;;;5065596;28;20236;-66
2022/11/02 07:22:12;;;;;;;4.95;2.45;;;;;;;;;;5077857;28;20242;-66
2022/11/02 07:24:41;;;;;;;5.22;2.70;;;;;;;;;;5077076;28;20210;-67
2022/11/02 07:27:08;;;;;;;5.80;2.88;;;;;;;;;;5089313;28;20203;-66
2022/11/02 07:29:36;;;;;;;4.97;2.55;;;;;;;;;;5097202;28;20237;-66
2022/11/02 07:32:05;;;;;;;5.00;2.30;;;;;;;;;;5097691;28;20210;-66
2022/11/02 07:34:32;;;;;;;4.03;2.35;;;;;;;;;;5097958;28;20216;-66
2022/11/02 07:37:00;;;;;;;6.25;2.67;;;;;;;;;;5096780;28;20245;-66
2022/11/02 07:39:27;;;;;;;5.05;2.38;;;;;;;;;;5096339;28;20207;-66
2022/11/02 07:41:56;;;;;;;4.28;2.17;;;;;;;;;;5097706;28;20195;-68
2022/11/02 07:44:23;;;;;;;3.63;2.13;;;;;;;;;;5096947;28;20204;-67
2022/11/02 07:46:51;;;;;;;3.72;2.20;;;;;;;;;;5096953;28;20584;-67
2022/11/02 07:49:20;;;;;;;4.93;2.13;;;;;;;;;;5097257;28;20642;-68
2022/11/02 07:51:47;;;;;;;5.70;2.42;;;;;;;;;;5097127;28;20231;-68
2022/11/02 07:54:15;;;;;;;4.03;2.20;;;;;;;;;;5096098;28;20666;-69
2022/11/02 07:56:42;;;;;;;5.50;2.38;;;;;;;;;;5097280;28;20246;-69
2022/11/02 07:59:12;;;;;;;5.63;2.35;;;;;;;;;;5096576;28;20199;-69
2022/11/02 08:01:40;;;;;;;3.70;2.00;;;;;;;;;;5096046;28;20204;-68
2022/11/02 08:04:07;;;;;;;5.93;2.03;;;;;;;;;;5096179;28;20212;-69
2022/11/02 08:06:35;;;;;;;4.40;2.05;;;;;;;;;;5096697;28;20184;-68
2022/11/02 08:09:03;;;;;;;3.30;1.70;;;;;;;;;;5097286;28;20204;-69
2022/11/02 08:11:30;;;;;;;4.35;2.13;;;;;;;;;;5096986;28;20196;-69
2022/11/02 08:13:58;;;;;;;3.58;1.88;;;;;;;;;;5096433;28;20262;-70
2022/11/02 08:16:27;;;;;;;3.15;1.90;;;;;;;;;;5096704;28;20269;-70
2022/11/02 08:18:57;;;;;;;3.47;1.83;;;;;;;;;;5096904;28;20226;-67
2022/11/02 08:21:25;;;;;;;2.65;1.50;;;;;;;;;;5094432;28;20934;-67
2022/11/02 08:23:52;;;;;;;3.20;1.92;;;;;;;;;;5095189;28;20192;-68
2022/11/02 08:26:20;;;;;;;3.30;1.70;;;;;;;;;;5096440;28;20315;-68
2022/11/02 08:28:47;;;;;;;3.53;1.77;;;;;;;;;;5096586;28;20205;-68
2022/11/02 08:31:15;;;;;;;2.88;1.80;;;;;;;;;;5096534;28;20229;-68
2022/11/02 08:33:44;;;;;;;3.13;1.67;;;;;;;;;;5097306;28;20208;-67
2022/11/02 08:36:12;;;;;;;2.10;1.52;;;;;;;;;;5096404;28;20688;-66
2022/11/02 08:38:41;;;;;;;3.00;1.60;;;;;;;;;;5096143;28;20204;-67
2022/11/02 08:41:08;;;;;;;2.72;1.50;;;;;;;;;;5096348;28;20754;-66
2022/11/02 08:43:35;;;;;;;2.50;1.60;;;;;;;;;;5097459;28;20204;-66
2022/11/02 08:46:03;;;;;;;3.17;1.75;;;;;;;;;;5096826;28;20203;-66
2022/11/02 08:48:30;;;;;;;2.33;1.42;;;;;;;;;;5097435;28;20203;-66
2022/11/02 08:50:59;;;;;;;3.33;1.45;;;;;;;;;;5096476;28;20214;-66
2022/11/02 08:53:27;;;;;;;2.95;1.52;;;;;;;;;;5096619;28;20256;-66
2022/11/02 08:55:54;;;;;;;2.90;1.40;;;;;;;;;;5097110;28;20223;-66
2022/11/02 08:58:22;;;;;;;2.30;1.50;;;;;;;;;;5096375;28;20210;-66
2022/11/02 09:00:49;;;;;;;3.35;1.48;;;;;;;;;;5096435;28;20211;-66
2022/11/02 09:03:17;;;;;;;2.50;1.48;;;;;;;;;;5095854;28;20204;-66
2022/11/02 09:05:46;;;;;;;1.75;1.02;;;;;;;;;;5096900;28;20200;-66
2022/11/02 09:08:15;;;;;;;1.30;1.08;;;;;;;;;;5096415;28;20211;-66
2022/11/02 09:10:43;;;;;;;2.05;1.20;;;;;;;;;;5096239;28;20269;-67
2022/11/02 09:13:12;;;;;;;2.63;1.40;;;;;;;;;;5096084;28;20196;-66
2022/11/02 09:15:39;;;;;;;3.95;1.55;;;;;;;;;;5095703;28;20680;-67
2022/11/02 09:18:07;;;;;;;3.05;1.40;;;;;;;;;;5095357;28;20195;-66
2022/11/02 09:20:35;;;;;;;2.05;1.27;;;;;;;;;;5095725;28;20242;-67
2022/11/02 09:23:02;;;;;;;1.80;1.08;;;;;;;;;;5096203;28;20208;-67
2022/11/02 09:25:31;;;;;;;2.70;1.45;;;;;;;;;;5096182;28;20222;-67
2022/11/02 09:27:59;;;;;;;2.00;1.23;;;;;;;;;;5095790;28;20199;-67
2022/11/02 09:30:28;;;;;;;2.63;1.40;;;;;;;;;;5095667;28;20666;-66
2022/11/02 09:32:55;;;;;;;2.63;1.63;;;;;;;;;;5095573;28;20204;-66
2022/11/02 09:35:23;;;;;;;3.05;1.30;;;;;;;;;;5095308;28;20310;-67
2022/11/02 09:37:51;;;;;;;3.75;1.30;;;;;;;;;;5093558;28;20226;-66
2022/11/02 09:40:20;;;;;;;2.03;1.17;;;;;;;;;;5094909;28;20299;-66
2022/11/02 09:42:55;;;;;;;4.15;1.30;;;;;;;;;;5095157;28;20191;-66
2022/11/02 09:45:22;;;;;;;2.95;1.30;;;;;;;;;;5094254;28;20210;-67
2022/11/02 09:47:51;;;;;;;2.20;1.10;;;;;;;;;;5094943;28;20766;-67
2022/11/02 09:50:21;;;;;;;3.47;1.30;;;;;;;;;;5094813;28;20204;-66
2022/11/02 09:52:52;;;;;;;2.78;1.33;;;;;;;;;;5095310;28;20221;-67
2022/11/02 09:55:21;;;;;;;1.88;1.25;;;;;;;;;;5094534;28;20286;-67
2022/11/02 09:57:51;;;;;;;2.33;1.25;;;;;;;;;;5095008;28;20755;-67
2022/11/02 10:00:20;;;;;;;1.73;1.25;;;;;;;;;;5094988;28;20196;-66
2022/11/02 10:02:53;;;;;;;1.83;1.33;;;;;;;;;;5095066;28;20752;-67
2022/11/02 10:05:27;;;;;;;1.40;1.00;;;;;;;;;;5094908;28;20203;-66
2022/11/02 10:08:08;;;;;;;1.33;1.15;;;;;;;;;;5094274;28;20196;-66
2022/11/02 10:10:37;;;;;;;2.15;1.20;;;;;;;;;;5094723;28;20207;-66
2022/11/02 10:13:12;;;;;;;3.00;1.10;;;;;;;;;;5093985;28;20616;-67
2022/11/02 10:15:44;;;;;;;1.83;1.10;;;;;;;;;;5094458;28;20198;-67
2022/11/02 10:18:14;;;;;;;2.10;1.10;;;;;;;;;;5094520;28;20191;-67
2022/11/02 10:20:45;;;;;;;1.65;1.08;;;;;;;;;;5093611;28;20239;-66
2022/11/02 10:23:17;;;;;;;1.70;1.08;;;;;;;;;;5094849;28;20195;-66
2022/11/02 10:25:45;;;;;;;2.08;1.10;;;;;;;;;;5093376;28;20207;-67
2022/11/02 10:28:15;;;;;;;1.23;1.02;;;;;;;;;;5094510;28;20203;-66
2022/11/02 10:30:44;;;;;;;2.03;1.20;;;;;;;;;;5093913;28;20199;-67
2022/11/02 10:33:14;;;;;;;1.63;1.00;;;;;;;;;;5086503;28;20706;-67
2022/11/02 10:35:46;;;;;;;1.63;0.90;;;;;;;;;;5074739;28;20215;-66
2022/11/02 10:38:19;;;;;;;2.15;1.00;;;;;;;;;;5074711;28;20238;-66
2022/11/02 10:40:51;;;;;;;2.22;1.48;;;;;;;;;;5074894;28;20653;-66
2022/11/02 10:43:25;;;;;;;1.48;1.10;;;;;;;;;;5074753;28;20205;-68
2022/11/02 10:45:59;;;;;;;3.75;1.20;;;;;;;;;;5074224;28;20702;-66
2022/11/02 10:48:33;;;;;;;2.45;1.10;;;;;;;;;;5089664;28;20196;-67
2022/11/02 10:51:05;;;;;;;1.27;0.98;;;;;;;;;;5094755;28;20285;-67
2022/11/02 10:53:35;;;;;;;2.03;1.27;;;;;;;;;;5094223;28;20208;-67
2022/11/02 10:56:07;;;;;;;1.95;1.05;;;;;;;;;;5094334;28;20262;-66
2022/11/02 10:58:34;;;;;;;1.98;1.00;;;;;;;;;;5093758;28;20211;-67
2022/11/02 11:01:07;;;;;;;1.20;1.10;;;;;;;;;;5093121;28;20199;-66
2022/11/02 11:03:34;;;;;;;2.53;1.10;;;;;;;;;;5093525;28;20195;-66
2022/11/02 11:06:04;;;;;;;3.50;1.55;;;;;;;;;;5094583;28;20582;-66
2022/11/02 11:08:34;;;;;;;2.40;1.48;;;;;;;;;;5094331;28;20287;-66
2022/11/02 11:11:12;;;;;;;2.35;1.40;;;;;;;;;;5094830;28;20199;-66
2022/11/02 11:13:40;;;;;;;3.22;1.40;;;;;;;;;;5095966;28;20210;-66
2022/11/02 11:16:09;;;;;;;1.73;1.25;;;;;;;;;;5097149;28;20226;-67
2022/11/02 11:18:38;;;;;;;2.33;1.40;;;;;;;;;;5097829;28;20209;-67
2022/11/02 11:21:06;;;;;;;2.22;1.45;;;;;;;;;;5097241;28;20250;-66
2022/11/02 11:23:33;;;;;;;3.00;1.50;;;;;;;;;;5096286;28;20222;-67
2022/11/02 11:26:01;;;;;;;2.60;1.60;;;;;;;;;;5095824;28;20295;-67
2022/11/02 11:28:30;;;;;;;2.38;1.60;;;;;;;;;;5097081;28;20199;-66
2022/11/02 11:31:10;;;;;;;2.75;1.40;;;;;;;;;;5096774;28;20303;-67
2022/11/02 11:33:48;;;;;;;3.60;1.70;;;;;;;;;;5097112;28;20747;-67
2022/11/02 11:36:26;;;;;;;2.20;1.40;;;;;;;;;;5096452;28;20203;-67
2022/11/02 11:38:55;;;;;;;3.17;1.80;;;;;;;;;;5096136;28;20204;-67
2022/11/02 11:41:23;;;;;;;4.07;1.90;;;;;;;;;;5096657;28;20199;-67
2022/11/02 11:43:51;;;;;;;2.78;1.85;;;;;;;;;;5096398;28;20195;-67
2022/11/02 11:46:20;;;;;;;3.55;1.77;;;;;;;;;;5096564;28;20199;-67
2022/11/02 11:48:50;;;;;;;2.70;1.65;;;;;;;;;;5096331;28;20199;-66
2022/11/02 11:51:31;;;;;;;3.17;1.85;;;;;;;;;;5096852;28;20205;-66
2022/11/02 11:54:06;;;;;;;3.35;1.50;;;;;;;;;;5095732;28;20196;-66
2022/11/02 11:56:34;;;;;;;3.42;1.63;;;;;;;;;;5096452;28;20203;-67
2022/11/02 11:59:02;;;;;;;4.22;2.00;;;;;;;;;;5096842;28;20227;-67
2022/11/02 12:01:38;;;;;;;3.50;1.58;;;;;;;;;;5096753;28;20213;-66
2022/11/02 12:04:06;;;;;;;6.20;2.20;;;;;;;;;;5096413;28;20207;-66
2022/11/02 12:06:37;;;;;;;2.67;1.75;;;;;;;;;;5096626;28;20911;-66
2022/11/02 12:09:06;;;;;;;3.50;1.70;;;;;;;;;;5097013;28;20306;-66
2022/11/02 12:11:39;;;;;;;4.78;1.98;;;;;;;;;;5096962;28;20199;-66
2022/11/02 12:14:24;;;;;;;4.03;2.10;;;;;;;;;;5096825;28;20199;-67
2022/11/02 12:17:09;;;;;;;3.40;1.80;;;;;;;;;;5096101;28;20228;-66
2022/11/02 12:19:44;;;;;;;2.80;1.75;;;;;;;;;;5094878;28;20231;-66
2022/11/02 12:22:14;;;;;;;2.75;1.73;;;;;;;;;;5076424;28;20195;-66
2022/11/02 12:24:59;;;;;;;3.78;1.80;;;;;;;;;;5075684;28;20200;-66
2022/11/02 12:27:32;;;;;;;3.58;1.60;;;;;;;;;;5044955;28;20200;-66
2022/11/02 12:30:14;;;;;;;2.65;1.48;;;;;;;;;;5075927;28;20501;-66
2022/11/02 12:33:00;;;;;;;2.95;1.88;;;;;;;;;;5075765;28;20207;-66
2022/11/02 12:35:35;;;;;;;3.50;2.00;;;;;;;;;;5074773;28;20214;-66
2022/11/02 12:38:13;;;;;;;2.58;1.70;;;;;;;;;;5074903;28;20226;-67
2022/11/02 12:40:46;;;;;;;2.80;1.80;;;;;;;;;;5074973;28;20250;-67
2022/11/02 12:43:24;;;;;;;2.83;1.52;;;;;;;;;;5076025;28;20233;-66
2022/11/02 12:45:56;;;;;;;3.38;1.80;;;;;;;;;;5073874;28;20215;-67
2022/11/02 12:48:26;;;;;;;2.95;1.70;;;;;;;;;;5086551;28;20573;-67
2022/11/02 12:50:59;;;;;;;2.88;1.80;;;;;;;;;;5095407;28;20199;-66
2022/11/02 12:53:39;;;;;;;3.17;1.90;;;;;;;;;;5094613;28;20210;-67
2022/11/02 12:56:08;;;;;;;2.75;1.60;;;;;;;;;;5094980;28;20195;-66
2022/11/02 12:58:37;;;;;;;2.78;1.73;;;;;;;;;;5093655;28;20223;-66
2022/11/02 13:01:07;;;;;;;2.90;1.55;;;;;;;;;;5095528;28;20204;-66
2022/11/02 13:03:40;;;;;;;3.15;1.40;;;;;;;;;;5094598;28;20491;-66
2022/11/02 13:06:12;;;;;;;2.80;1.75;;;;;;;;;;5095605;28;20207;-67
2022/11/02 13:08:42;;;;;;;2.00;1.60;;;;;;;;;;5096164;28;20486;-66
2022/11/02 13:11:13;;;;;;;2.40;1.50;;;;;;;;;;5095384;28;20211;-66
2022/11/02 13:13:43;;;;;;;2.50;1.63;;;;;;;;;;5093848;28;20199;-67
2022/11/02 13:16:11;;;;;;;1.67;1.50;;;;;;;;;;5094640;28;20204;-66
2022/11/02 13:18:45;;;;;;;2.63;1.70;;;;;;;;;;5094301;28;20367;-66
2022/11/02 13:21:14;;;;;;;2.67;1.73;;;;;;;;;;5094786;28;20207;-66
2022/11/02 13:23:45;;;;;;;2.47;1.75;;;;;;;;;;5094425;28;20581;-67
2022/11/02 13:26:17;;;;;;;2.50;1.50;;;;;;;;;;5095263;28;20211;-66
2022/11/02 13:28:49;;;;;;;2.90;1.60;;;;;;;;;;5094219;28;20842;-66
2022/11/02 13:31:18;;;;;;;3.13;1.88;;;;;;;;;;5093608;28;20279;-66
2022/11/02 13:33:50;;;;;;;1.95;1.55;;;;;;;;;;5094311;28;20245;-66
2022/11/02 13:36:17;;;;;;;1.98;1.38;;;;;;;;;;5092673;28;20223;-66
2022/11/02 13:38:47;;;;;;;3.03;1.70;;;;;;;;;;5094280;28;20224;-66
2022/11/02 13:41:20;;;;;;;1.75;1.50;;;;;;;;;;5093994;28;20188;-66
2022/11/02 13:44:04;;;;;;;2.30;1.48;;;;;;;;;;5093917;28;20242;-67
2022/11/02 13:46:40;;;;;;;1.77;1.30;;;;;;;;;;5093604;28;20214;-66
2022/11/02 13:49:14;;;;;;;2.17;1.50;;;;;;;;;;5093589;28;20206;-66
2022/11/02 13:51:44;;;;;;;2.20;1.50;;;;;;;;;;5093934;28;20199;-66
2022/11/02 13:54:15;;;;;;;2.30;1.40;;;;;;;;;;5093485;28;20585;-67
2022/11/02 13:56:43;;;;;;;2.00;1.30;;;;;;;;;;5093734;28;20747;-66
2022/11/02 13:59:18;;;;;;;2.10;1.50;;;;;;;;;;5093795;28;20224;-65
2022/11/02 14:01:46;;;;;;;1.90;1.40;;;;;;;;;;5094520;28;20202;-66
2022/11/02 14:04:16;;;;;;;2.60;1.55;;;;;;;;;;5093717;28;20210;-65
2022/11/02 14:06:46;;;;;;;2.17;1.30;;;;;;;;;;5092518;28;20199;-66
2022/11/02 14:09:21;;;;;;;1.95;1.35;;;;;;;;;;5092500;28;20615;-66
2022/11/02 14:11:49;;;;;;;2.17;1.25;;;;;;;;;;5092722;28;20482;-67
2022/11/02 14:14:19;;;;;;;1.70;1.30;;;;;;;;;;5093605;28;20607;-66
2022/11/02 14:16:57;;;;;;;1.42;1.17;;;;;;;;;;5092606;28;20203;-65
2022/11/02 14:19:31;;;;;;;2.05;1.40;;;;;;;;;;5093494;28;20330;-67
2022/11/02 14:22:20;;;;;;;1.52;1.20;;;;;;;;;;5093435;28;20210;-68
2022/11/02 14:25:11;;;;;;;2.28;1.50;;;;;;;;;;5090139;28;20195;-64
2022/11/02 14:27:39;;;;;;;2.38;1.30;;;;;;;;;;5099615;28;20198;-64
2022/11/02 14:30:28;;;;;;;1.75;1.10;;;;;;;;;;5107674;28;20202;-64
2022/11/02 14:33:00;;;;;;;2.70;1.50;;;;;;;;;;5114064;28;20203;-64
2022/11/02 14:35:34;;;;;;;3.30;1.27;;;;;;;;;;5101978;28;20196;-65
2022/11/02 14:38:12;;;;;;;2.00;1.10;;;;;;;;;;5086081;28;20224;-64
2022/11/02 14:40:46;;;;;;;2.70;1.20;;;;;;;;;;5094078;28;20191;-64
2022/11/02 14:43:29;;;;;;;2.25;1.10;;;;;;;;;;5093404;28;20210;-64
2022/11/02 14:46:06;;;;;;;2.20;1.42;;;;;;;;;;5082779;28;20312;-64
2022/11/02 14:48:43;;;;;;;2.47;1.10;;;;;;;;;;5116999;28;20207;-65
2022/11/02 14:51:16;;;;;;;2.13;1.20;;;;;;;;;;5116306;28;20209;-64
2022/11/02 14:53:44;;;;;;;1.73;1.30;;;;;;;;;;5117656;28;20199;-64
2022/11/02 14:56:11;;;;;;;3.47;1.20;;;;;;;;;;5116682;28;20203;-64
2022/11/02 14:58:40;;;;;;;1.33;1.05;;;;;;;;;;5116679;28;20612;-63
2022/11/02 15:01:13;;;;;;;2.17;1.20;;;;;;;;;;5117523;28;20213;-63
2022/11/02 15:03:41;;;;;;;3.60;1.50;;;;;;;;;;5111154;28;20200;-64
2022/11/02 15:06:16;;;;;;;1.65;1.10;;;;;;;;;;5096766;28;20768;-64
2022/11/02 15:08:50;;;;;;;2.78;1.30;;;;;;;;;;5096763;28;20290;-64
2022/11/02 15:11:36;;;;;;;1.70;1.33;;;;;;;;;;5095674;28;20214;-63